sensor_id;sensor_type;location;lat;lon;timestamp;pressure;altitude;pressure_sealevel;temperature;humidity
21633;BME280;48765;51.568;8.840;2022-07-17T00:01:26;99529.94;;;10.35;100.00
21633;BME280;48765;51.568;8.840;2022-07-17T00:03:53;99516.63;;;10.34;100.00
21633;BME280;48765;51.568;8.840;2022-07-17T00:06:20;99521.00;;;10.27;100.00
21633;BME280;48765;51.568;8.840;2022-07-17T00:08:47;99530.56;;;10.19;100.00
21633;BME280;48765;51.568;8.840;2022-07-17T00:11:14;99524.34;;;10.15;100.00
21633;BME280;48765;51.568;8.840;2022-07-17T00:13:41;99520.78;;;10.12;100.00
21633;BME280;48765;51.568;8.840;2022-07-17T00:16:09;99512.03;;;10.19;100.00
21633;BME280;48765;51.568;8.840;2022-07-17T00:18:36;99517.22;;;10.08;100.00
21633;BME280;48765;51.568;8.840;2022-07-17T00:21:03;99518.09;;;10.10;100.00
21633;BME280;48765;51.568;8.840;2022-07-17T00:23:30;99509.22;;;10.04;100.00
21633;BME280;48765;51.568;8.840;2022-07-17T00:25:57;99507.34;;;9.96;100.00
21633;BME280;48765;51.568;8.840;2022-07-17T00:28:23;99507.34;;;9.96;100.00
21633;BME280;48765;51.568;8.840;2022-07-17T00:30:50;99510.81;;;9.89;100.00
21633;BME280;48765;51.568;8.840;2022-07-17T00:33:19;99508.16;;;9.91;100.00
21633;BME280;48765;51.568;8.840;2022-07-17T00:35:45;99501.69;;;9.69;100.00
21633;BME280;48765;51.568;8.840;2022-07-17T00:38:12;99507.78;;;9.63;100.00
21633;BME280;48765;51.568;8.840;2022-07-17T00:40:40;99502.78;;;9.85;100.00
21633;BME280;48765;51.568;8.840;2022-07-17T00:43:07;99511.63;;;9.87;100.00
21633;BME280;48765;51.568;8.840;2022-07-17T00:45:34;99509.81;;;9.81;100.00
21633;BME280;48765;51.568;8.840;2022-07-17T00:48:01;99515.09;;;9.81;100.00
21633;BME280;48765;51.568;8.840;2022-07-17T00:50:31;99510.44;;;9.62;100.00
21633;BME280;48765;51.568;8.840;2022-07-17T00:52:58;99512.38;;;9.75;100.00
21633;BME280;48765;51.568;8.840;2022-07-17T00:55:25;99513.09;;;9.63;100.00
21633;BME280;48765;51.568;8.840;2022-07-17T00:57:52;99517.38;;;9.54;100.00
21633;BME280;48765;51.568;8.840;2022-07-17T01:00:21;99513.81;;;9.52;100.00
21633;BME280;48765;51.568;8.840;2022-07-17T01:02:51;99505.06;;;9.57;100.00
21633;BME280;48765;51.568;8.840;2022-07-17T01:05:18;99512.06;;;9.51;100.00
21633;BME280;48765;51.568;8.840;2022-07-17T01:07:47;99509.47;;;9.55;100.00
21633;BME280;48765;51.568;8.840;2022-07-17T01:10:14;99507.53;;;9.45;100.00
21633;BME280;48765;51.568;8.840;2022-07-17T01:12:43;99512.88;;;9.48;100.00
21633;BME280;48765;51.568;8.840;2022-07-17T01:15:10;99512.00;;;9.47;100.00
21633;BME280;48765;51.568;8.840;2022-07-17T01:17:37;99507.47;;;9.40;100.00
21633;BME280;48765;51.568;8.840;2022-07-17T01:20:05;99509.19;;;9.37;100.00
21633;BME280;48765;51.568;8.840;2022-07-17T01:22:38;99512.66;;;9.33;100.00
21633;BME280;48765;51.568;8.840;2022-07-17T01:25:06;99509.91;;;9.25;100.00
21633;BME280;48765;51.568;8.840;2022-07-17T01:27:33;99517.03;;;9.31;100.00
21633;BME280;48765;51.568;8.840;2022-07-17T01:30:00;99516.41;;;9.47;100.00
21633;BME280;48765;51.568;8.840;2022-07-17T01:32:30;99512.69;;;9.34;100.00
21633;BME280;48765;51.568;8.840;2022-07-17T01:34:57;99525.63;;;9.16;100.00
21633;BME280;48765;51.568;8.840;2022-07-17T01:37:24;99523.91;;;9.19;100.00
21633;BME280;48765;51.568;8.840;2022-07-17T01:39:52;99526.50;;;9.15;100.00
21633;BME280;48765;51.568;8.840;2022-07-17T01:42:19;99532.69;;;9.17;100.00
21633;BME280;48765;51.568;8.840;2022-07-17T01:44:46;99528.34;;;9.20;100.00
21633;BME280;48765;51.568;8.840;2022-07-17T01:47:13;99530.16;;;9.23;100.00
21633;BME280;48765;51.568;8.840;2022-07-17T01:49:43;99537.06;;;9.15;100.00
21633;BME280;48765;51.568;8.840;2022-07-17T01:52:09;99528.94;;;9.03;100.00
21633;BME280;48765;51.568;8.840;2022-07-17T01:54:36;99534.19;;;9.00;100.00
21633;BME280;48765;51.568;8.840;2022-07-17T01:57:05;99534.22;;;9.03;100.00
21633;BME280;48765;51.568;8.840;2022-07-17T01:59:31;99535.22;;;9.09;100.00
21633;BME280;48765;51.568;8.840;2022-07-17T02:01:58;99528.75;;;8.90;100.00
21633;BME280;48765;51.568;8.840;2022-07-17T02:04:25;99524.34;;;8.91;100.00
21633;BME280;48765;51.568;8.840;2022-07-17T02:06:52;99530.44;;;8.85;100.00
21633;BME280;48765;51.568;8.840;2022-07-17T02:09:20;99533.88;;;8.81;100.00
21633;BME280;48765;51.568;8.840;2022-07-17T02:11:47;99526.84;;;8.83;100.00
21633;BME280;48765;51.568;8.840;2022-07-17T02:14:15;99524.28;;;8.88;100.00
21633;BME280;48765;51.568;8.840;2022-07-17T02:16:42;99531.88;;;8.68;100.00
21633;BME280;48765;51.568;8.840;2022-07-17T02:19:09;99530.28;;;8.79;100.00
21633;BME280;48765;51.568;8.840;2022-07-17T02:21:36;99530.13;;;8.70;100.00
21633;BME280;48765;51.568;8.840;2022-07-17T02:24:03;99531.13;;;8.75;100.00
21633;BME280;48765;51.568;8.840;2022-07-17T02:26:30;99529.28;;;8.71;100.00
21633;BME280;48765;51.568;8.840;2022-07-17T02:28:57;99527.56;;;8.73;100.00
21633;BME280;48765;51.568;8.840;2022-07-17T02:31:26;99530.91;;;8.63;100.00
21633;BME280;48765;51.568;8.840;2022-07-17T02:33:52;99521.53;;;8.80;100.00
21633;BME280;48765;51.568;8.840;2022-07-17T02:36:19;99523.97;;;8.69;100.00
21633;BME280;48765;51.568;8.840;2022-07-17T02:38:46;99521.28;;;8.66;100.00
21633;BME280;48765;51.568;8.840;2022-07-17T02:41:13;99524.63;;;8.56;100.00
21633;BME280;48765;51.568;8.840;2022-07-17T02:43:41;99517.63;;;8.60;100.00
21633;BME280;48765;51.568;8.840;2022-07-17T02:46:08;99528.19;;;8.60;100.00
21633;BME280;48765;51.568;8.840;2022-07-17T02:48:36;99522.03;;;8.61;100.00
21633;BME280;48765;51.568;8.840;2022-07-17T02:51:03;99519.28;;;8.55;100.00
21633;BME280;48765;51.568;8.840;2022-07-17T02:53:30;99525.28;;;8.46;100.00
21633;BME280;48765;51.568;8.840;2022-07-17T02:55:57;99522.81;;;8.54;100.00
21633;BME280;48765;51.568;8.840;2022-07-17T02:58:24;99523.69;;;8.53;100.00
21633;BME280;48765;51.568;8.840;2022-07-17T03:00:51;99517.63;;;8.60;100.00
21633;BME280;48765;51.568;8.840;2022-07-17T03:03:18;99515.78;;;8.56;100.00
21633;BME280;48765;51.568;8.840;2022-07-17T03:05:47;99521.03;;;8.53;100.00
21633;BME280;48765;51.568;8.840;2022-07-17T03:08:14;99520.25;;;8.58;100.00
21633;BME280;48765;51.568;8.840;2022-07-17T03:10:41;99533.22;;;8.44;100.00
21633;BME280;48765;51.568;8.840;2022-07-17T03:13:08;99530.50;;;8.41;100.00
21633;BME280;48765;51.568;8.840;2022-07-17T03:15:35;99541.06;;;8.41;100.00
21633;BME280;48765;51.568;8.840;2022-07-17T03:18:02;99531.16;;;8.31;100.00
21633;BME280;48765;51.568;8.840;2022-07-17T03:20:29;99532.00;;;8.29;100.00
21633;BME280;48765;51.568;8.840;2022-07-17T03:22:57;99531.16;;;8.31;100.00
21633;BME280;48765;51.568;8.840;2022-07-17T03:25:24;99540.00;;;8.33;100.00
21633;BME280;48765;51.568;8.840;2022-07-17T03:27:51;99539.75;;;8.19;100.00
21633;BME280;48765;51.568;8.840;2022-07-17T03:30:17;99534.47;;;8.21;100.00
21633;BME280;48765;51.568;8.840;2022-07-17T03:32:44;99535.53;;;8.29;100.00
21633;BME280;48765;51.568;8.840;2022-07-17T03:35:11;99533.00;;;8.35;100.00
21633;BME280;48765;51.568;8.840;2022-07-17T03:37:38;99531.16;;;8.31;100.00
21633;BME280;48765;51.568;8.840;2022-07-17T03:40:07;99546.03;;;8.26;100.00
21633;BME280;48765;51.568;8.840;2022-07-17T03:42:34;99542.09;;;8.50;100.00
21633;BME280;48765;51.568;8.840;2022-07-17T03:45:01;99540.53;;;8.61;100.00
21633;BME280;48765;51.568;8.840;2022-07-17T03:47:28;99543.56;;;8.35;100.00
21633;BME280;48765;51.568;8.840;2022-07-17T03:49:55;99549.59;;;8.28;100.00
21633;BME280;48765;51.568;8.840;2022-07-17T03:52:22;99552.28;;;8.30;100.00
21633;BME280;48765;51.568;8.840;2022-07-17T03:54:49;99560.59;;;8.50;100.00
21633;BME280;48765;51.568;8.840;2022-07-17T03:57:17;99565.09;;;8.54;100.00
21633;BME280;48765;51.568;8.840;2022-07-17T03:59:44;99569.16;;;8.83;100.00
21633;BME280;48765;51.568;8.840;2022-07-17T04:02:11;99570.03;;;8.82;100.00
21633;BME280;48765;51.568;8.840;2022-07-17T04:04:38;99563.06;;;8.89;100.00
21633;BME280;48765;51.568;8.840;2022-07-17T04:07:04;99561.03;;;8.73;100.00
21633;BME280;48765;51.568;8.840;2022-07-17T04:09:31;99568.06;;;8.70;100.00
21633;BME280;48765;51.568;8.840;2022-07-17T04:11:58;99573.38;;;8.72;100.00
21633;BME280;48765;51.568;8.840;2022-07-17T04:14:27;99572.66;;;8.82;100.00
21633;BME280;48765;51.568;8.840;2022-07-17T04:16:53;99571.94;;;8.89;100.00
21633;BME280;48765;51.568;8.840;2022-07-17T04:19:20;99568.34;;;8.87;100.00
21633;BME280;48765;51.568;8.840;2022-07-17T04:21:47;99574.50;;;8.86;100.00
21633;BME280;48765;51.568;8.840;2022-07-17T04:24:14;99567.47;;;8.88;100.00
21633;BME280;48765;51.568;8.840;2022-07-17T04:26:41;99571.88;;;8.86;100.00
21633;BME280;48765;51.568;8.840;2022-07-17T04:29:08;99578.22;;;8.98;100.00
21633;BME280;48765;51.568;8.840;2022-07-17T04:31:36;99582.44;;;8.85;100.00
21633;BME280;48765;51.568;8.840;2022-07-17T04:34:04;99585.41;;;9.05;100.00
21633;BME280;48765;51.568;8.840;2022-07-17T04:36:30;99590.47;;;8.91;100.00
21633;BME280;48765;51.568;8.840;2022-07-17T04:38:57;99585.28;;;8.99;100.00
21633;BME280;48765;51.568;8.840;2022-07-17T04:41:24;99585.25;;;8.95;100.00
21633;BME280;48765;51.568;8.840;2022-07-17T04:43:51;99582.63;;;8.99;100.00
21633;BME280;48765;51.568;8.840;2022-07-17T04:46:19;99586.97;;;8.93;100.00
21633;BME280;48765;51.568;8.840;2022-07-17T04:48:47;99577.44;;;9.03;100.00
21633;BME280;48765;51.568;8.840;2022-07-17T04:51:14;99571.25;;;9.03;100.00
21633;BME280;48765;51.568;8.840;2022-07-17T04:53:41;99572.59;;;9.29;100.00
21633;BME280;48765;51.568;8.840;2022-07-17T04:56:08;99563.84;;;9.35;100.00
21633;BME280;48765;51.568;8.840;2022-07-17T04:58:35;99554.69;;;9.72;100.00
21633;BME280;48765;51.568;8.840;2022-07-17T05:01:02;99552.84;;;9.65;100.00
21633;BME280;48765;51.568;8.840;2022-07-17T05:03:29;99544.22;;;9.80;100.00
21633;BME280;48765;51.568;8.840;2022-07-17T05:05:57;99542.59;;;9.89;100.00
21633;BME280;48765;51.568;8.840;2022-07-17T05:08:24;99526.00;;;10.06;100.00
21633;BME280;48765;51.568;8.840;2022-07-17T05:10:51;99528.69;;;10.10;100.00
21633;BME280;48765;51.568;8.840;2022-07-17T05:13:18;99530.16;;;10.57;100.00
21633;BME280;48765;51.568;8.840;2022-07-17T05:15:45;99533.88;;;10.74;100.00
21633;BME280;48765;51.568;8.840;2022-07-17T05:18:12;99554.22;;;10.77;100.00
21633;BME280;48765;51.568;8.840;2022-07-17T05:20:39;99558.03;;;11.08;100.00
21633;BME280;48765;51.568;8.840;2022-07-17T05:23:08;99571.47;;;11.26;100.00
21633;BME280;48765;51.568;8.840;2022-07-17T05:25:34;99582.03;;;11.20;100.00
21633;BME280;48765;51.568;8.840;2022-07-17T05:28:01;99590.84;;;11.19;100.00
21633;BME280;48765;51.568;8.840;2022-07-17T05:30:28;99593.63;;;11.33;100.00
21633;BME280;48765;51.568;8.840;2022-07-17T05:32:55;99593.94;;;11.75;100.00
21633;BME280;48765;51.568;8.840;2022-07-17T05:35:22;99593.16;;;11.84;100.00
21633;BME280;48765;51.568;8.840;2022-07-17T05:37:49;99582.53;;;11.84;100.00
21633;BME280;48765;51.568;8.840;2022-07-17T05:40:18;99572.88;;;11.95;100.00
21633;BME280;48765;51.568;8.840;2022-07-17T05:42:44;99565.91;;;12.19;100.00
21633;BME280;48765;51.568;8.840;2022-07-17T05:45:12;99579.19;;;12.20;100.00
21633;BME280;48765;51.568;8.840;2022-07-17T05:47:39;99577.41;;;12.22;100.00
21633;BME280;48765;51.568;8.840;2022-07-17T05:50:06;99574.88;;;12.51;100.00
21633;BME280;48765;51.568;8.840;2022-07-17T05:52:33;99582.00;;;12.68;100.00
21633;BME280;48765;51.568;8.840;2022-07-17T05:54:59;99582.84;;;12.48;100.00
21633;BME280;48765;51.568;8.840;2022-07-17T05:57:28;99575.78;;;12.61;100.00
21633;BME280;48765;51.568;8.840;2022-07-17T05:59:55;99572.31;;;13.05;100.00
21633;BME280;48765;51.568;8.840;2022-07-17T06:02:21;99565.28;;;13.36;100.00
21633;BME280;48765;51.568;8.840;2022-07-17T06:04:48;99578.59;;;13.32;100.00
21633;BME280;48765;51.568;8.840;2022-07-17T06:07:15;99576.81;;;13.41;100.00
21633;BME280;48765;51.568;8.840;2022-07-17T06:09:42;99560.78;;;13.75;100.00
21633;BME280;48765;51.568;8.840;2022-07-17T06:12:09;99563.41;;;13.84;100.00
21633;BME280;48765;51.568;8.840;2022-07-17T06:14:37;99552.75;;;13.93;100.00
21633;BME280;48765;51.568;8.840;2022-07-17T06:17:04;99548.22;;;14.06;100.00
21633;BME280;48765;51.568;8.840;2022-07-17T06:19:31;99544.69;;;14.05;100.00
21633;BME280;48765;51.568;8.840;2022-07-17T06:21:57;99542.88;;;14.17;100.00
21633;BME280;48765;51.568;8.840;2022-07-17T06:24:24;99554.28;;;14.46;100.00
21633;BME280;48765;51.568;8.840;2022-07-17T06:26:51;99553.31;;;14.66;100.00
21633;BME280;48765;51.568;8.840;2022-07-17T06:29:18;99547.81;;;14.96;100.00
21633;BME280;48765;51.568;8.840;2022-07-17T06:31:47;99557.44;;;15.17;97.88
21633;BME280;48765;51.568;8.840;2022-07-17T06:34:13;99543.00;;;15.38;94.95
21633;BME280;48765;51.568;8.840;2022-07-17T06:36:40;99543.81;;;15.46;90.84
21633;BME280;48765;51.568;8.840;2022-07-17T06:39:07;99547.28;;;15.56;88.92
21633;BME280;48765;51.568;8.840;2022-07-17T06:41:34;99558.66;;;15.79;86.73
21633;BME280;48765;51.568;8.840;2022-07-17T06:44:01;99564.94;;;15.77;83.25
21633;BME280;48765;51.568;8.840;2022-07-17T06:46:28;99557.75;;;15.82;81.71
21633;BME280;48765;51.568;8.840;2022-07-17T06:48:56;99564.66;;;16.04;83.22
21633;BME280;48765;51.568;8.840;2022-07-17T06:51:23;99563.59;;;16.19;81.56
21633;BME280;48765;51.568;8.840;2022-07-17T06:53:50;99561.78;;;16.20;80.82
21633;BME280;48765;51.568;8.840;2022-07-17T06:56:17;99563.34;;;16.36;80.77
21633;BME280;48765;51.568;8.840;2022-07-17T06:58:44;99564.22;;;16.40;78.54
21633;BME280;48765;51.568;8.840;2022-07-17T07:01:10;99559.56;;;16.54;80.89
21633;BME280;48765;51.568;8.840;2022-07-17T07:03:38;99560.47;;;16.51;77.92
21633;BME280;48765;51.568;8.840;2022-07-17T07:06:06;99558.72;;;16.50;77.04
21633;BME280;48765;51.568;8.840;2022-07-17T07:08:33;99564.78;;;16.63;77.53
21633;BME280;48765;51.568;8.840;2022-07-17T07:11:01;99565.59;;;16.73;77.99
21633;BME280;48765;51.568;8.840;2022-07-17T07:13:28;99587.06;;;16.67;75.80
21633;BME280;48765;51.568;8.840;2022-07-17T07:15:55;99586.75;;;16.91;77.28
21633;BME280;48765;51.568;8.840;2022-07-17T07:18:22;99585.00;;;16.87;74.91
21633;BME280;48765;51.568;8.840;2022-07-17T07:20:49;99575.22;;;16.86;75.29
21633;BME280;48765;51.568;8.840;2022-07-17T07:23:17;99584.03;;;16.93;74.37
21633;BME280;48765;51.568;8.840;2022-07-17T07:25:44;99595.50;;;17.02;74.26
21633;BME280;48765;51.568;8.840;2022-07-17T07:28:12;99583.06;;;17.00;73.80
21633;BME280;48765;51.568;8.840;2022-07-17T07:30:38;99576.53;;;17.16;73.06
21633;BME280;48765;51.568;8.840;2022-07-17T07:33:05;99568.97;;;17.43;72.65
21633;BME280;48765;51.568;8.840;2022-07-17T07:35:32;99569.81;;;17.45;72.10
21633;BME280;48765;51.568;8.840;2022-07-17T07:37:59;99552.84;;;17.44;70.90
21633;BME280;48765;51.568;8.840;2022-07-17T07:40:27;99548.41;;;17.43;70.16
21633;BME280;48765;51.568;8.840;2022-07-17T07:42:54;99545.81;;;17.38;69.92
21633;BME280;48765;51.568;8.840;2022-07-17T07:45:21;99547.91;;;17.74;73.15
21633;BME280;48765;51.568;8.840;2022-07-17T07:47:49;99538.06;;;17.71;70.05
21633;BME280;48765;51.568;8.840;2022-07-17T07:50:16;99537.25;;;17.68;68.84
21633;BME280;48765;51.568;8.840;2022-07-17T07:52:44;99532.66;;;17.73;68.14
21633;BME280;48765;51.568;8.840;2022-07-17T07:55:11;99525.44;;;17.78;66.06
21633;BME280;48765;51.568;8.840;2022-07-17T07:57:40;99525.19;;;17.93;66.38
21633;BME280;48765;51.568;8.840;2022-07-17T08:00:07;99525.78;;;18.07;66.15
21633;BME280;48765;51.568;8.840;2022-07-17T08:02:35;99519.84;;;18.35;64.10
21633;BME280;48765;51.568;8.840;2022-07-17T08:05:02;99522.00;;;18.18;65.13
21633;BME280;48765;51.568;8.840;2022-07-17T08:07:29;99521.63;;;18.36;62.97
21633;BME280;48765;51.568;8.840;2022-07-17T08:09:57;99521.06;;;18.19;64.03
21633;BME280;48765;51.568;8.840;2022-07-17T08:12:24;99527.41;;;18.14;63.48
21633;BME280;48765;51.568;8.840;2022-07-17T08:14:52;99525.66;;;18.13;63.52
21633;BME280;48765;51.568;8.840;2022-07-17T08:17:19;99519.84;;;18.35;62.68
21633;BME280;48765;51.568;8.840;2022-07-17T08:19:46;99518.72;;;18.45;63.44
21633;BME280;48765;51.568;8.840;2022-07-17T08:22:13;99530.34;;;18.46;61.20
21633;BME280;48765;51.568;8.840;2022-07-17T08:24:39;99538.66;;;18.75;60.71
21633;BME280;48765;51.568;8.840;2022-07-17T08:27:06;99538.88;;;18.64;59.25
21633;BME280;48765;51.568;8.840;2022-07-17T08:29:33;99534.34;;;18.67;59.18
21633;BME280;48765;51.568;8.840;2022-07-17T08:32:01;99541.53;;;18.24;57.59
21633;BME280;48765;51.568;8.840;2022-07-17T08:34:28;99547.34;;;18.46;59.00
21633;BME280;48765;51.568;8.840;2022-07-17T08:36:55;99551.59;;;18.56;59.05
21633;BME280;48765;51.568;8.840;2022-07-17T08:39:22;99560.78;;;18.88;58.39
21633;BME280;48765;51.568;8.840;2022-07-17T08:41:49;99556.47;;;18.79;59.79
21633;BME280;48765;51.568;8.840;2022-07-17T08:44:16;99554.81;;;19.12;60.22
21633;BME280;48765;51.568;8.840;2022-07-17T08:46:44;99558.44;;;19.10;60.18
21633;BME280;48765;51.568;8.840;2022-07-17T08:49:12;99559.69;;;18.97;60.48
21633;BME280;48765;51.568;8.840;2022-07-17T08:51:40;99561.03;;;19.14;59.45
21633;BME280;48765;51.568;8.840;2022-07-17T08:54:07;99554.53;;;18.86;59.07
21633;BME280;48765;51.568;8.840;2022-07-17T08:56:34;99551.28;;;18.72;57.93
21633;BME280;48765;51.568;8.840;2022-07-17T08:59:01;99547.69;;;18.73;57.65
21633;BME280;48765;51.568;8.840;2022-07-17T09:01:27;99548.25;;;18.87;58.19
21633;BME280;48765;51.568;8.840;2022-07-17T09:03:55;99551.84;;;18.86;57.63
21633;BME280;48765;51.568;8.840;2022-07-17T09:06:24;99553.66;;;19.23;57.76
21633;BME280;48765;51.568;8.840;2022-07-17T09:08:59;99552.03;;;19.51;58.67
21633;BME280;48765;51.568;8.840;2022-07-17T09:11:27;99551.78;;;19.26;55.54
21633;BME280;48765;51.568;8.840;2022-07-17T09:13:54;99545.44;;;19.29;55.42
21633;BME280;48765;51.568;8.840;2022-07-17T09:16:20;99546.38;;;19.28;54.41
21633;BME280;48765;51.568;8.840;2022-07-17T09:18:48;99554.72;;;19.53;55.12
21633;BME280;48765;51.568;8.840;2022-07-17T09:21:19;99549.69;;;19.39;53.42
21633;BME280;48765;51.568;8.840;2022-07-17T09:23:56;99551.22;;;19.48;54.11
21633;BME280;48765;51.568;8.840;2022-07-17T09:26:23;99557.59;;;19.81;54.22
21633;BME280;48765;51.568;8.840;2022-07-17T09:28:50;99558.63;;;19.75;53.93
21633;BME280;48765;51.568;8.840;2022-07-17T09:31:24;99551.81;;;19.62;52.80
21633;BME280;48765;51.568;8.840;2022-07-17T09:33:51;99549.91;;;19.65;51.24
21633;BME280;48765;51.568;8.840;2022-07-17T09:36:18;99545.53;;;20.27;50.10
21633;BME280;48765;51.568;8.840;2022-07-17T09:38:44;99549.59;;;19.78;49.02
21633;BME280;48765;51.568;8.840;2022-07-17T09:41:17;99552.53;;;20.01;50.71
21633;BME280;48765;51.568;8.840;2022-07-17T09:43:46;99554.47;;;19.63;50.15
21633;BME280;48765;51.568;8.840;2022-07-17T09:46:14;99547.97;;;20.03;49.27
21633;BME280;48765;51.568;8.840;2022-07-17T09:48:42;99545.34;;;20.02;48.61
21633;BME280;48765;51.568;8.840;2022-07-17T09:51:13;99553.34;;;20.36;49.70
21633;BME280;48765;51.568;8.840;2022-07-17T09:53:41;99547.50;;;20.53;49.10
21633;BME280;48765;51.568;8.840;2022-07-17T09:56:10;99544.53;;;20.00;48.62
21633;BME280;48765;51.568;8.840;2022-07-17T09:58:40;99542.25;;;20.48;49.34
21633;BME280;48765;51.568;8.840;2022-07-17T10:01:09;99545.53;;;20.27;48.85
21633;BME280;48765;51.568;8.840;2022-07-17T10:03:43;99541.97;;;20.57;48.07
21633;BME280;48765;51.568;8.840;2022-07-17T10:06:10;99540.75;;;20.36;49.12
21633;BME280;48765;51.568;8.840;2022-07-17T10:08:38;99544.09;;;20.76;49.54
21633;BME280;48765;51.568;8.840;2022-07-17T10:11:05;99537.41;;;20.59;49.21
21633;BME280;48765;51.568;8.840;2022-07-17T10:13:32;99530.34;;;20.85;47.61
21633;BME280;48765;51.568;8.840;2022-07-17T10:16:01;99531.38;;;20.81;48.01
21633;BME280;48765;51.568;8.840;2022-07-17T10:18:35;99543.94;;;20.52;46.97
21633;BME280;48765;51.568;8.840;2022-07-17T10:21:11;99539.28;;;20.57;46.72
21633;BME280;48765;51.568;8.840;2022-07-17T10:23:40;99548.28;;;20.56;46.24
21633;BME280;48765;51.568;8.840;2022-07-17T10:26:07;99545.44;;;20.30;46.17
21633;BME280;48765;51.568;8.840;2022-07-17T10:28:38;99537.69;;;20.80;45.97
21633;BME280;48765;51.568;8.840;2022-07-17T10:31:07;99535.88;;;21.08;46.13
21633;BME280;48765;51.568;8.840;2022-07-17T10:33:35;99524.78;;;20.61;43.44
21633;BME280;48765;51.568;8.840;2022-07-17T10:36:02;99534.22;;;20.76;42.75
21633;BME280;48765;51.568;8.840;2022-07-17T10:38:29;99532.47;;;21.03;42.09
21633;BME280;48765;51.568;8.840;2022-07-17T10:40:59;99529.41;;;21.14;42.39
21633;BME280;48765;51.568;8.840;2022-07-17T10:43:27;99516.56;;;20.66;40.82
21633;BME280;48765;51.568;8.840;2022-07-17T10:45:54;99522.94;;;20.91;41.23
21633;BME280;48765;51.568;8.840;2022-07-17T10:48:22;99523.88;;;21.17;41.55
21633;BME280;48765;51.568;8.840;2022-07-17T10:50:50;99525.28;;;21.02;40.92
21633;BME280;48765;51.568;8.840;2022-07-17T10:53:19;99516.56;;;21.22;39.77
21633;BME280;48765;51.568;8.840;2022-07-17T10:55:48;99517.34;;;20.98;39.15
21633;BME280;48765;51.568;8.840;2022-07-17T10:58:17;99513.88;;;21.21;39.95
21633;BME280;48765;51.568;8.840;2022-07-17T11:00:49;99513.81;;;21.24;39.49
21633;BME280;48765;51.568;8.840;2022-07-17T11:03:23;99521.59;;;21.59;40.67
21633;BME280;48765;51.568;8.840;2022-07-17T11:05:50;99511.34;;;21.44;39.70
21633;BME280;48765;51.568;8.840;2022-07-17T11:08:16;99505.69;;;21.52;39.69
21633;BME280;48765;51.568;8.840;2022-07-17T11:10:45;99508.84;;;21.64;40.04
21633;BME280;48765;51.568;8.840;2022-07-17T11:13:12;99515.19;;;21.37;40.44
21633;BME280;48765;51.568;8.840;2022-07-17T11:15:40;99505.53;;;21.56;38.71
21633;BME280;48765;51.568;8.840;2022-07-17T11:18:09;99502.59;;;21.62;37.98
21633;BME280;48765;51.568;8.840;2022-07-17T11:20:47;99508.47;;;21.22;38.74
21633;BME280;48765;51.568;8.840;2022-07-17T11:23:14;99492.66;;;21.64;37.38
21633;BME280;48765;51.568;8.840;2022-07-17T11:25:50;99495.94;;;21.73;36.86
21633;BME280;48765;51.568;8.840;2022-07-17T11:28:26;99499.81;;;21.65;37.72
21633;BME280;48765;51.568;8.840;2022-07-17T11:30:52;99505.06;;;21.68;38.50
21633;BME280;48765;51.568;8.840;2022-07-17T11:33:19;99502.22;;;22.23;38.08
21633;BME280;48765;51.568;8.840;2022-07-17T11:35:48;99493.84;;;22.31;37.63
21633;BME280;48765;51.568;8.840;2022-07-17T11:38:15;99490.00;;;22.13;37.76
21633;BME280;48765;51.568;8.840;2022-07-17T11:40:45;99494.94;;;22.25;37.07
21633;BME280;48765;51.568;8.840;2022-07-17T11:43:12;99501.06;;;22.30;39.40
21633;BME280;48765;51.568;8.840;2022-07-17T11:45:39;99492.81;;;21.85;35.96
21633;BME280;48765;51.568;8.840;2022-07-17T11:48:06;99487.50;;;22.32;35.95
21633;BME280;48765;51.568;8.840;2022-07-17T11:50:33;99494.66;;;22.33;37.06
21633;BME280;48765;51.568;8.840;2022-07-17T11:53:01;99495.00;;;22.47;36.31
21633;BME280;48765;51.568;8.840;2022-07-17T11:55:34;99497.44;;;22.53;36.74
21633;BME280;48765;51.568;8.840;2022-07-17T11:58:01;99485.88;;;22.03;35.73
21633;BME280;48765;51.568;8.840;2022-07-17T12:00:28;99484.44;;;22.41;34.65
21633;BME280;48765;51.568;8.840;2022-07-17T12:02:58;99485.59;;;22.34;34.12
21633;BME280;48765;51.568;8.840;2022-07-17T12:05:26;99477.63;;;22.31;34.39
21633;BME280;48765;51.568;8.840;2022-07-17T12:07:53;99482.41;;;22.69;35.65
21633;BME280;48765;51.568;8.840;2022-07-17T12:10:22;99488.00;;;22.65;35.80
21633;BME280;48765;51.568;8.840;2022-07-17T12:12:53;99492.47;;;22.42;36.55
21633;BME280;48765;51.568;8.840;2022-07-17T12:15:21;99487.25;;;22.14;36.51
21633;BME280;48765;51.568;8.840;2022-07-17T12:17:48;99489.50;;;22.72;36.80
21633;BME280;48765;51.568;8.840;2022-07-17T12:20:15;99491.56;;;22.89;36.81
21633;BME280;48765;51.568;8.840;2022-07-17T12:22:43;99499.22;;;22.78;38.14
21633;BME280;48765;51.568;8.840;2022-07-17T12:25:22;99482.63;;;22.41;35.82
21633;BME280;48765;51.568;8.840;2022-07-17T12:27:49;99490.53;;;22.69;36.13
21633;BME280;48765;51.568;8.840;2022-07-17T12:30:16;99492.38;;;22.67;37.06
21633;BME280;48765;51.568;8.840;2022-07-17T12:32:43;99495.69;;;22.52;37.72
21633;BME280;48765;51.568;8.840;2022-07-17T12:35:10;99489.19;;;22.80;34.21
21633;BME280;48765;51.568;8.840;2022-07-17T12:37:37;99476.91;;;23.16;34.06
21633;BME280;48765;51.568;8.840;2022-07-17T12:40:04;99490.41;;;22.73;33.91
21633;BME280;48765;51.568;8.840;2022-07-17T12:42:33;99496.28;;;22.60;36.13
21633;BME280;48765;51.568;8.840;2022-07-17T12:45:00;99488.44;;;22.31;35.68
21633;BME280;48765;51.568;8.840;2022-07-17T12:47:29;99479.59;;;22.73;35.21
21633;BME280;48765;51.568;8.840;2022-07-17T12:49:57;99479.81;;;22.66;34.55
21633;BME280;48765;51.568;8.840;2022-07-17T12:52:24;99477.03;;;22.46;35.88
21633;BME280;48765;51.568;8.840;2022-07-17T12:54:51;99488.50;;;22.75;35.64
21633;BME280;48765;51.568;8.840;2022-07-17T12:57:18;99481.34;;;22.74;36.72
21633;BME280;48765;51.568;8.840;2022-07-17T12:59:46;99475.94;;;22.74;34.44
21633;BME280;48765;51.568;8.840;2022-07-17T13:02:13;99483.09;;;22.75;36.64